sensor_id;sensor_type;location;lat;lon;timestamp;P1;durP1;ratioP1;P2;durP2;ratioP2
17997;SDS011;9124;48.144;17.098;2024-03-23T00:55:32;16.20;;;13.48;;
17997;SDS011;9124;48.144;17.098;2024-03-23T00:59:58;15.05;;;12.85;;
17997;SDS011;9124;48.144;17.098;2024-03-23T01:04:24;16.50;;;12.23;;
17997;SDS011;9124;48.144;17.098;2024-03-23T01:08:51;15.13;;;13.25;;
17997;SDS011;9124;48.144;17.098;2024-03-23T01:13:18;15.40;;;13.13;;
17997;SDS011;9124;48.144;17.098;2024-03-23T01:17:47;14.93;;;13.02;;
17997;SDS011;9124;48.144;17.098;2024-03-23T01:22:13;15.57;;;14.02;;
17997;SDS011;9124;48.144;17.098;2024-03-23T01:26:40;18.88;;;13.65;;
17997;SDS011;9124;48.144;17.098;2024-03-23T01:31:06;14.88;;;12.48;;
17997;SDS011;9124;48.144;17.098;2024-03-23T01:35:33;20.65;;;14.57;;
17997;SDS011;9124;48.144;17.098;2024-03-23T01:39:59;17.67;;;14.70;;
17997;SDS011;9124;48.144;17.098;2024-03-23T01:44:26;16.52;;;14.65;;
17997;SDS011;9124;48.144;17.098;2024-03-23T01:48:52;17.10;;;15.40;;
17997;SDS011;9124;48.144;17.098;2024-03-23T01:53:19;25.98;;;16.23;;
17997;SDS011;9124;48.144;17.098;2024-03-23T01:57:47;18.58;;;16.75;;
17997;SDS011;9124;48.144;17.098;2024-03-23T02:02:16;20.92;;;16.95;;
17997;SDS011;9124;48.144;17.098;2024-03-23T02:06:44;20.10;;;17.98;;
17997;SDS011;9124;48.144;17.098;2024-03-23T02:11:11;16.30;;;14.52;;
17997;SDS011;9124;48.144;17.098;2024-03-23T02:15:39;18.80;;;14.80;;
17997;SDS011;9124;48.144;17.098;2024-03-23T02:20:06;14.25;;;12.98;;
17997;SDS011;9124;48.144;17.098;2024-03-23T02:24:32;15.27;;;12.93;;
17997;SDS011;9124;48.144;17.098;2024-03-23T02:29:00;14.68;;;13.20;;
17997;SDS011;9124;48.144;17.098;2024-03-23T02:33:26;16.30;;;14.30;;
17997;SDS011;9124;48.144;17.098;2024-03-23T02:37:55;17.17;;;12.77;;
17997;SDS011;9124;48.144;17.098;2024-03-23T02:42:22;14.98;;;13.68;;
17997;SDS011;9124;48.144;17.098;2024-03-23T02:46:49;26.88;;;16.33;;
17997;SDS011;9124;48.144;17.098;2024-03-23T02:51:16;16.48;;;14.93;;
17997;SDS011;9124;48.144;17.098;2024-03-23T02:55:42;18.75;;;16.50;;
17997;SDS011;9124;48.144;17.098;2024-03-23T03:00:08;27.27;;;19.17;;
17997;SDS011;9124;48.144;17.098;2024-03-23T03:04:36;21.02;;;18.67;;
17997;SDS011;9124;48.144;17.098;2024-03-23T03:09:03;26.17;;;20.27;;
17997;SDS011;9124;48.144;17.098;2024-03-23T03:13:30;27.75;;;20.60;;
17997;SDS011;9124;48.144;17.098;2024-03-23T03:17:56;30.60;;;22.27;;
17997;SDS011;9124;48.144;17.098;2024-03-23T03:22:23;24.90;;;21.83;;
17997;SDS011;9124;48.144;17.098;2024-03-23T03:26:49;31.00;;;25.38;;
17997;SDS011;9124;48.144;17.098;2024-03-23T03:31:16;35.30;;;25.45;;
17997;SDS011;9124;48.144;17.098;2024-03-23T03:35:44;34.72;;;26.13;;
17997;SDS011;9124;48.144;17.098;2024-03-23T03:40:11;29.92;;;23.92;;
17997;SDS011;9124;48.144;17.098;2024-03-23T03:44:40;24.45;;;21.02;;
17997;SDS011;9124;48.144;17.098;2024-03-23T03:49:07;20.80;;;18.65;;
17997;SDS011;9124;48.144;17.098;2024-03-23T03:53:33;25.90;;;23.10;;
17997;SDS011;9124;48.144;17.098;2024-03-23T03:57:59;36.00;;;22.75;;
17997;SDS011;9124;48.144;17.098;2024-03-23T04:02:26;34.47;;;21.85;;
17997;SDS011;9124;48.144;17.098;2024-03-23T04:07:02;28.85;;;24.00;;
17997;SDS011;9124;48.144;17.098;2024-03-23T04:11:28;29.33;;;23.90;;
17997;SDS011;9124;48.144;17.098;2024-03-23T04:15:55;32.85;;;22.05;;
17997;SDS011;9124;48.144;17.098;2024-03-23T04:20:22;25.83;;;21.35;;
17997;SDS011;9124;48.144;17.098;2024-03-23T04:24:48;21.70;;;17.98;;
17997;SDS011;9124;48.144;17.098;2024-03-23T04:29:14;21.48;;;17.27;;
17997;SDS011;9124;48.144;17.098;2024-03-23T04:33:41;18.48;;;16.67;;
17997;SDS011;9124;48.144;17.098;2024-03-23T04:38:07;20.08;;;17.23;;
17997;SDS011;9124;48.144;17.098;2024-03-23T04:42:34;18.55;;;16.85;;
17997;SDS011;9124;48.144;17.098;2024-03-23T04:47:00;22.77;;;18.45;;
17997;SDS011;9124;48.144;17.098;2024-03-23T04:51:27;24.55;;;18.98;;
17997;SDS011;9124;48.144;17.098;2024-03-23T04:56:00;20.60;;;18.50;;
17997;SDS011;9124;48.144;17.098;2024-03-23T05:00:28;21.70;;;19.08;;
17997;SDS011;9124;48.144;17.098;2024-03-23T05:04:55;23.33;;;19.00;;
17997;SDS011;9124;48.144;17.098;2024-03-23T05:09:21;27.75;;;18.67;;
17997;SDS011;9124;48.144;17.098;2024-03-23T05:13:48;21.67;;;19.33;;
17997;SDS011;9124;48.144;17.098;2024-03-23T05:18:14;21.83;;;19.45;;
17997;SDS011;9124;48.144;17.098;2024-03-23T05:22:41;21.02;;;18.70;;
17997;SDS011;9124;48.144;17.098;2024-03-23T05:27:07;27.63;;;20.92;;
17997;SDS011;9124;48.144;17.098;2024-03-23T05:31:33;27.60;;;20.30;;
17997;SDS011;9124;48.144;17.098;2024-03-23T05:36:00;21.85;;;19.60;;
17997;SDS011;9124;48.144;17.098;2024-03-23T05:40:27;25.42;;;19.55;;
17997;SDS011;9124;48.144;17.098;2024-03-23T05:44:53;23.27;;;20.98;;
17997;SDS011;9124;48.144;17.098;2024-03-23T05:49:20;28.75;;;22.75;;
17997;SDS011;9124;48.144;17.098;2024-03-23T05:53:46;29.40;;;25.10;;
17997;SDS011;9124;48.144;17.098;2024-03-23T05:58:17;27.48;;;24.55;;
17997;SDS011;9124;48.144;17.098;2024-03-23T06:02:44;32.63;;;24.75;;
17997;SDS011;9124;48.144;17.098;2024-03-23T06:07:11;25.92;;;23.08;;
17997;SDS011;9124;48.144;17.098;2024-03-23T06:11:39;27.60;;;23.83;;
17997;SDS011;9124;48.144;17.098;2024-03-23T06:16:06;27.90;;;24.77;;
17997;SDS011;9124;48.144;17.098;2024-03-23T06:20:32;29.02;;;24.98;;
17997;SDS011;9124;48.144;17.098;2024-03-23T06:24:59;29.88;;;26.05;;
17997;SDS011;9124;48.144;17.098;2024-03-23T06:29:26;29.35;;;25.77;;
17997;SDS011;9124;48.144;17.098;2024-03-23T06:33:52;30.63;;;25.08;;
17997;SDS011;9124;48.144;17.098;2024-03-23T06:38:21;29.63;;;24.48;;
17997;SDS011;9124;48.144;17.098;2024-03-23T06:42:48;31.00;;;24.15;;
17997;SDS011;9124;48.144;17.098;2024-03-23T06:47:14;41.25;;;27.27;;
17997;SDS011;9124;48.144;17.098;2024-03-23T06:51:41;32.92;;;26.90;;
17997;SDS011;9124;48.144;17.098;2024-03-23T06:56:07;31.25;;;26.10;;
17997;SDS011;9124;48.144;17.098;2024-03-23T07:00:33;28.30;;;25.38;;
17997;SDS011;9124;48.144;17.098;2024-03-23T07:05:00;29.75;;;26.10;;
17997;SDS011;9124;48.144;17.098;2024-03-23T07:09:27;28.60;;;25.40;;
17997;SDS011;9124;48.144;17.098;2024-03-23T07:13:54;31.63;;;26.38;;
17997;SDS011;9124;48.144;17.098;2024-03-23T07:18:21;33.20;;;28.02;;
17997;SDS011;9124;48.144;17.098;2024-03-23T07:22:48;31.27;;;26.05;;
17997;SDS011;9124;48.144;17.098;2024-03-23T07:27:14;31.88;;;26.33;;
17997;SDS011;9124;48.144;17.098;2024-03-23T07:31:41;30.77;;;25.83;;
17997;SDS011;9124;48.144;17.098;2024-03-23T07:36:07;31.23;;;26.23;;
17997;SDS011;9124;48.144;17.098;2024-03-23T07:40:34;31.27;;;24.15;;
17997;SDS011;9124;48.144;17.098;2024-03-23T07:45:00;29.25;;;22.52;;
17997;SDS011;9124;48.144;17.098;2024-03-23T07:49:26;27.10;;;22.55;;
17997;SDS011;9124;48.144;17.098;2024-03-23T07:53:53;23.67;;;21.20;;
17997;SDS011;9124;48.144;17.098;2024-03-23T07:58:19;30.33;;;21.63;;
17997;SDS011;9124;48.144;17.098;2024-03-23T08:02:46;20.73;;;18.80;;
17997;SDS011;9124;48.144;17.098;2024-03-23T08:07:12;21.10;;;19.00;;
17997;SDS011;9124;48.144;17.098;2024-03-23T08:11:39;20.92;;;18.75;;
17997;SDS011;9124;48.144;17.098;2024-03-23T08:16:05;23.65;;;19.15;;
17997;SDS011;9124;48.144;17.098;2024-03-23T08:20:31;21.38;;;19.50;;
17997;SDS011;9124;48.144;17.098;2024-03-23T08:24:58;20.73;;;18.92;;
17997;SDS011;9124;48.144;17.098;2024-03-23T08:29:24;20.23;;;18.17;;
17997;SDS011;9124;48.144;17.098;2024-03-23T08:33:51;20.90;;;19.13;;
17997;SDS011;9124;48.144;17.098;2024-03-23T08:38:17;18.63;;;17.13;;
17997;SDS011;9124;48.144;17.098;2024-03-23T08:42:44;19.73;;;18.13;;
17997;SDS011;9124;48.144;17.098;2024-03-23T08:47:10;22.60;;;20.70;;
17997;SDS011;9124;48.144;17.098;2024-03-23T08:51:37;20.13;;;18.38;;
17997;SDS011;9124;48.144;17.098;2024-03-23T08:56:03;18.70;;;17.02;;
17997;SDS011;9124;48.144;17.098;2024-03-23T09:00:31;19.30;;;17.70;;
17997;SDS011;9124;48.144;17.098;2024-03-23T09:04:58;17.20;;;15.88;;
17997;SDS011;9124;48.144;17.098;2024-03-23T09:09:30;15.95;;;14.65;;
17997;SDS011;9124;48.144;17.098;2024-03-23T09:13:56;18.17;;;14.80;;
17997;SDS011;9124;48.144;17.098;2024-03-23T09:18:23;13.77;;;12.60;;
17997;SDS011;9124;48.144;17.098;2024-03-23T09:22:49;13.88;;;12.88;;
17997;SDS011;9124;48.144;17.098;2024-03-23T09:27:16;14.30;;;12.32;;
17997;SDS011;9124;48.144;17.098;2024-03-23T09:31:42;14.00;;;12.88;;
17997;SDS011;9124;48.144;17.098;2024-03-23T09:36:09;13.07;;;12.05;;
17997;SDS011;9124;48.144;17.098;2024-03-23T09:40:41;11.40;;;10.68;;
17997;SDS011;9124;48.144;17.098;2024-03-23T09:45:11;12.15;;;11.18;;
17997;SDS011;9124;48.144;17.098;2024-03-23T09:49:47;11.38;;;10.60;;
17997;SDS011;9124;48.144;17.098;2024-03-23T09:54:13;11.13;;;10.38;;
17997;SDS011;9124;48.144;17.098;2024-03-23T09:58:39;11.00;;;10.10;;
17997;SDS011;9124;48.144;17.098;2024-03-23T10:03:06;10.68;;;10.07;;
17997;SDS011;9124;48.144;17.098;2024-03-23T10:07:34;10.77;;;9.82;;
17997;SDS011;9124;48.144;17.098;2024-03-23T10:16:39;16.88;;;9.93;;
17997;SDS011;9124;48.144;17.098;2024-03-23T10:25:32;9.40;;;8.65;;
17997;SDS011;9124;48.144;17.098;2024-03-23T10:30:07;10.90;;;9.93;;
17997;SDS011;9124;48.144;17.098;2024-03-23T10:34:38;11.18;;;10.30;;
17997;SDS011;9124;48.144;17.098;2024-03-23T10:39:05;10.93;;;10.23;;
17997;SDS011;9124;48.144;17.098;2024-03-23T10:43:34;11.93;;;11.05;;
17997;SDS011;9124;48.144;17.098;2024-03-23T10:48:01;10.93;;;10.27;;
17997;SDS011;9124;48.144;17.098;2024-03-23T10:52:30;11.50;;;10.48;;
17997;SDS011;9124;48.144;17.098;2024-03-23T10:57:03;12.48;;;11.35;;
17997;SDS011;9124;48.144;17.098;2024-03-23T11:01:53;11.10;;;10.05;;
17997;SDS011;9124;48.144;17.098;2024-03-23T11:06:37;13.02;;;11.98;;
17997;SDS011;9124;48.144;17.098;2024-03-23T11:11:18;13.68;;;11.07;;
17997;SDS011;9124;48.144;17.098;2024-03-23T11:15:51;11.40;;;10.60;;
17997;SDS011;9124;48.144;17.098;2024-03-23T11:20:17;11.38;;;10.27;;
17997;SDS011;9124;48.144;17.098;2024-03-23T11:24:58;10.07;;;9.27;;
17997;SDS011;9124;48.144;17.098;2024-03-23T11:29:25;10.90;;;10.05;;
17997;SDS011;9124;48.144;17.098;2024-03-23T11:34:02;10.70;;;10.00;;
17997;SDS011;9124;48.144;17.098;2024-03-23T11:38:30;11.07;;;10.27;;
17997;SDS011;9124;48.144;17.098;2024-03-23T11:43:10;11.50;;;10.40;;
17997;SDS011;9124;48.144;17.098;2024-03-23T11:47:38;10.30;;;9.45;;
17997;SDS011;9124;48.144;17.098;2024-03-23T11:52:05;11.40;;;10.48;;
17997;SDS011;9124;48.144;17.098;2024-03-23T11:56:32;10.68;;;9.70;;
17997;SDS011;9124;48.144;17.098;2024-03-23T12:01:00;10.73;;;9.80;;
17997;SDS011;9124;48.144;17.098;2024-03-23T12:05:29;10.73;;;9.85;;
17997;SDS011;9124;48.144;17.098;2024-03-23T12:10:03;11.70;;;10.60;;
17997;SDS011;9124;48.144;17.098;2024-03-23T12:14:32;12.40;;;10.60;;
17997;SDS011;9124;48.144;17.098;2024-03-23T12:19:04;11.68;;;10.73;;
17997;SDS011;9124;48.144;17.098;2024-03-23T12:23:32;10.75;;;9.98;;
17997;SDS011;9124;48.144;17.098;2024-03-23T12:27:59;11.18;;;10.35;;
17997;SDS011;9124;48.144;17.098;2024-03-23T12:32:26;10.77;;;9.85;;
17997;SDS011;9124;48.144;17.098;2024-03-23T12:36:52;10.05;;;9.23;;
17997;SDS011;9124;48.144;17.098;2024-03-23T12:41:19;9.25;;;8.65;;
17997;SDS011;9124;48.144;17.098;2024-03-23T12:45:48;9.23;;;8.32;;
17997;SDS011;9124;48.144;17.098;2024-03-23T12:50:15;9.65;;;8.85;;
17997;SDS011;9124;48.144;17.098;2024-03-23T12:54:42;7.97;;;7.47;;
17997;SDS011;9124;48.144;17.098;2024-03-23T12:59:08;7.88;;;7.07;;
17997;SDS011;9124;48.144;17.098;2024-03-23T13:03:34;6.40;;;5.80;;
17997;SDS011;9124;48.144;17.098;2024-03-23T13:08:01;6.70;;;6.20;;
17997;SDS011;9124;48.144;17.098;2024-03-23T13:12:29;6.43;;;5.93;;
17997;SDS011;9124;48.144;17.098;2024-03-23T13:16:55;12.15;;;6.80;;
17997;SDS011;9124;48.144;17.098;2024-03-23T13:21:21;6.28;;;5.78;;
17997;SDS011;9124;48.144;17.098;2024-03-23T13:25:49;5.90;;;5.50;;
17997;SDS011;9124;48.144;17.098;2024-03-23T13:30:20;5.57;;;5.07;;
17997;SDS011;9124;48.144;17.098;2024-03-23T13:34:47;6.90;;;4.93;;
17997;SDS011;9124;48.144;17.098;2024-03-23T13:39:16;5.53;;;5.13;;
17997;SDS011;9124;48.144;17.098;2024-03-23T13:43:43;4.85;;;4.45;;
17997;SDS011;9124;48.144;17.098;2024-03-23T13:48:09;6.15;;;4.35;;
17997;SDS011;9124;48.144;17.098;2024-03-23T13:52:36;4.03;;;3.72;;
17997;SDS011;9124;48.144;17.098;2024-03-23T13:57:02;3.22;;;3.00;;
17997;SDS011;9124;48.144;17.098;2024-03-23T14:01:28;13.98;;;2.78;;
17997;SDS011;9124;48.144;17.098;2024-03-23T14:05:57;7.05;;;2.00;;
17997;SDS011;9124;48.144;17.098;2024-03-23T14:10:24;4.03;;;1.13;;
17997;SDS011;9124;48.144;17.098;2024-03-23T14:14:50;12.27;;;1.88;;
17997;SDS011;9124;48.144;17.098;2024-03-23T14:19:18;3.08;;;1.15;;
17997;SDS011;9124;48.144;17.098;2024-03-23T14:23:45;3.10;;;1.00;;
17997;SDS011;9124;48.144;17.098;2024-03-23T14:28:12;1.85;;;1.20;;
17997;SDS011;9124;48.144;17.098;2024-03-23T14:32:41;1.85;;;0.60;;
17997;SDS011;9124;48.144;17.098;2024-03-23T14:37:07;2.42;;;0.68;;
17997;SDS011;9124;48.144;17.098;2024-03-23T14:41:33;0.90;;;0.52;;
17997;SDS011;9124;48.144;17.098;2024-03-23T14:50:35;1.42;;;0.80;;
17997;SDS011;9124;48.144;17.098;2024-03-23T14:55:02;0.85;;;0.60;;
17997;SDS011;9124;48.144;17.098;2024-03-23T14:59:28;0.70;;;0.70;;
17997;SDS011;9124;48.144;17.098;2024-03-23T15:03:56;0.82;;;0.60;;
17997;SDS011;9124;48.144;17.098;2024-03-23T15:08:22;0.70;;;0.70;;
17997;SDS011;9124;48.144;17.098;2024-03-23T15:12:49;1.00;;;0.90;;
17997;SDS011;9124;48.144;17.098;2024-03-23T15:17:15;1.23;;;1.15;;
17997;SDS011;9124;48.144;17.098;2024-03-23T15:21:42;1.30;;;1.20;;
17997;SDS011;9124;48.144;17.098;2024-03-23T15:26:09;1.33;;;0.88;;
17997;SDS011;9124;48.144;17.098;2024-03-23T15:30:35;3.10;;;1.17;;
17997;SDS011;9124;48.144;17.098;2024-03-23T15:35:04;1.35;;;1.20;;
17997;SDS011;9124;48.144;17.098;2024-03-23T15:39:33;1.30;;;1.23;;
17997;SDS011;9124;48.144;17.098;2024-03-23T15:43:59;1.52;;;1.42;;
17997;SDS011;9124;48.144;17.098;2024-03-23T15:48:26;1.92;;;1.80;;
17997;SDS011;9124;48.144;17.098;2024-03-23T15:52:53;3.13;;;1.77;;
17997;SDS011;9124;48.144;17.098;2024-03-23T15:57:21;1.90;;;0.90;;
17997;SDS011;9124;48.144;17.098;2024-03-23T16:01:48;0.75;;;0.75;;
17997;SDS011;9124;48.144;17.098;2024-03-23T16:06:14;1.73;;;0.63;;
17997;SDS011;9124;48.144;17.098;2024-03-23T16:10:40;0.95;;;0.43;;
17997;SDS011;9124;48.144;17.098;2024-03-23T16:15:07;0.82;;;0.70;;
17997;SDS011;9124;48.144;17.098;2024-03-23T16:19:35;0.77;;;0.57;;
17997;SDS011;9124;48.144;17.098;2024-03-23T16:24:01;1.02;;;0.70;;
17997;SDS011;9124;48.144;17.098;2024-03-23T16:28:28;1.05;;;1.05;;
17997;SDS011;9124;48.144;17.098;2024-03-23T16:32:56;0.55;;;0.55;;
17997;SDS011;9124;48.144;17.098;2024-03-23T16:37:24;0.80;;;0.80;;
17997;SDS011;9124;48.144;17.098;2024-03-23T16:41:50;0.60;;;0.60;;
17997;SDS011;9124;48.144;17.098;2024-03-23T16:46:17;1.23;;;1.13;;
17997;SDS011;9124;48.144;17.098;2024-03-23T16:50:43;2.25;;;0.93;;
17997;SDS011;9124;48.144;17.098;2024-03-23T16:55:10;2.80;;;0.90;;
17997;SDS011;9124;48.144;17.098;2024-03-23T16:59:36;1.10;;;0.80;;
17997;SDS011;9124;48.144;17.098;2024-03-23T17:04:02;0.45;;;0.45;;
17997;SDS011;9124;48.144;17.098;2024-03-23T17:08:29;0.55;;;0.50;;
17997;SDS011;9124;48.144;17.098;2024-03-23T17:12:56;0.70;;;0.60;;
17997;SDS011;9124;48.144;17.098;2024-03-23T17:17:23;0.70;;;0.70;;
17997;SDS011;9124;48.144;17.098;2024-03-23T17:21:49;0.70;;;0.70;;
17997;SDS011;9124;48.144;17.098;2024-03-23T17:26:16;0.60;;;0.60;;
17997;SDS011;9124;48.144;17.098;2024-03-23T17:30:46;0.90;;;0.90;;
17997;SDS011;9124;48.144;17.098;2024-03-23T17:35:14;1.48;;;0.70;;
17997;SDS011;9124;48.144;17.098;2024-03-23T17:39:40;1.00;;;0.90;;
17997;SDS011;9124;48.144;17.098;2024-03-23T17:44:07;0.63;;;0.63;;
17997;SDS011;9124;48.144;17.098;2024-03-23T17:48:33;1.33;;;1.13;;
17997;SDS011;9124;48.144;17.098;2024-03-23T17:53:00;1.20;;;0.88;;
17997;SDS011;9124;48.144;17.098;2024-03-23T17:57:26;0.50;;;0.50;;
17997;SDS011;9124;48.144;17.098;2024-03-23T18:01:53;0.75;;;0.70;;
17997;SDS011;9124;48.144;17.098;2024-03-23T18:06:19;0.68;;;0.68;;
17997;SDS011;9124;48.144;17.098;2024-03-23T18:10:46;0.88;;;0.70;;
17997;SDS011;9124;48.144;17.098;2024-03-23T18:15:12;0.77;;;0.73;;
17997;SDS011;9124;48.144;17.098;2024-03-23T18:19:39;0.85;;;0.73;;
17997;SDS011;9124;48.144;17.098;2024-03-23T18:24:05;0.80;;;0.80;;
17997;SDS011;9124;48.144;17.098;2024-03-23T18:28:33;0.75;;;0.70;;
17997;SDS011;9124;48.144;17.098;2024-03-23T18:32:59;0.65;;;0.65;;
17997;SDS011;9124;48.144;17.098;2024-03-23T18:37:26;2.15;;;0.82;;
17997;SDS011;9124;48.144;17.098;2024-03-23T18:41:52;1.27;;;0.80;;
17997;SDS011;9124;48.144;17.098;2024-03-23T18:46:19;0.63;;;0.63;;
17997;SDS011;9124;48.144;17.098;2024-03-23T18:50:49;1.05;;;0.90;;
17997;SDS011;9124;48.144;17.098;2024-03-23T18:55:15;0.80;;;0.80;;
17997;SDS011;9124;48.144;17.098;2024-03-23T18:59:41;1.70;;;0.90;;
17997;SDS011;9124;48.144;17.098;2024-03-23T19:04:08;0.90;;;0.90;;
17997;SDS011;9124;48.144;17.098;2024-03-23T19:08:35;0.70;;;0.70;;
17997;SDS011;9124;48.144;17.098;2024-03-23T19:13:01;1.30;;;0.77;;
17997;SDS011;9124;48.144;17.098;2024-03-23T19:17:28;1.00;;;1.00;;
17997;SDS011;9124;48.144;17.098;2024-03-23T19:21:54;1.17;;;1.08;;
17997;SDS011;9124;48.144;17.098;2024-03-23T19:26:21;1.00;;;1.00;;
17997;SDS011;9124;48.144;17.098;2024-03-23T19:30:48;1.50;;;1.40;;
17997;SDS011;9124;48.144;17.098;2024-03-23T19:35:15;1.10;;;1.00;;
17997;SDS011;9124;48.144;17.098;2024-03-23T19:39:42;0.70;;;0.70;;
17997;SDS011;9124;48.144;17.098;2024-03-23T19:44:09;1.52;;;1.30;;
17997;SDS011;9124;48.144;17.098;2024-03-23T19:48:35;1.80;;;1.20;;
17997;SDS011;9124;48.144;17.098;2024-03-23T19:53:02;1.42;;;1.08;;
17997;SDS011;9124;48.144;17.098;2024-03-23T19:57:30;1.92;;;1.17;;
17997;SDS011;9124;48.144;17.098;2024-03-23T20:01:57;1.77;;;1.00;;
17997;SDS011;9124;48.144;17.098;2024-03-23T20:06:24;1.45;;;1.02;;
17997;SDS011;9124;48.144;17.098;2024-03-23T20:10:50;1.25;;;1.10;;
17997;SDS011;9124;48.144;17.098;2024-03-23T20:15:17;1.00;;;0.90;;
17997;SDS011;9124;48.144;17.098;2024-03-23T20:19:43;1.30;;;1.20;;
17997;SDS011;9124;48.144;17.098;2024-03-23T20:24:11;1.20;;;1.10;;
17997;SDS011;9124;48.144;17.098;2024-03-23T20:28:37;1.80;;;1.23;;
17997;SDS011;9124;48.144;17.098;2024-03-23T20:33:04;1.38;;;1.25;;
17997;SDS011;9124;48.144;17.098;2024-03-23T20:37:30;2.15;;;2.00;;
17997;SDS011;9124;48.144;17.098;2024-03-23T20:41:56;2.05;;;1.95;;
17997;SDS011;9124;48.144;17.098;2024-03-23T20:46:23;2.58;;;2.35;;
17997;SDS011;9124;48.144;17.098;2024-03-23T20:50:59;1.98;;;1.85;;
17997;SDS011;9124;48.144;17.098;2024-03-23T20:55:26;2.63;;;2.42;;
17997;SDS011;9124;48.144;17.098;2024-03-23T20:59:53;2.53;;;2.42;;
17997;SDS011;9124;48.144;17.098;2024-03-23T21:04:21;2.75;;;2.60;;
17997;SDS011;9124;48.144;17.098;2024-03-23T21:08:48;3.35;;;3.05;;
17997;SDS011;9124;48.144;17.098;2024-03-23T21:13:14;3.47;;;2.72;;
17997;SDS011;9124;48.144;17.098;2024-03-23T21:17:41;3.08;;;2.88;;
17997;SDS011;9124;48.144;17.098;2024-03-23T21:22:08;3.45;;;2.10;;
17997;SDS011;9124;48.144;17.098;2024-03-23T21:26:35;1.92;;;1.80;;
17997;SDS011;9124;48.144;17.098;2024-03-23T21:31:07;2.22;;;2.00;;
17997;SDS011;9124;48.144;17.098;2024-03-23T21:35:34;2.45;;;2.25;;
17997;SDS011;9124;48.144;17.098;2024-03-23T21:40:00;2.28;;;1.88;;
17997;SDS011;9124;48.144;17.098;2024-03-23T21:44:27;1.83;;;1.73;;
17997;SDS011;9124;48.144;17.098;2024-03-23T21:48:53;1.90;;;1.80;;
17997;SDS011;9124;48.144;17.098;2024-03-23T21:53:20;2.53;;;1.52;;
17997;SDS011;9124;48.144;17.098;2024-03-23T21:57:46;5.03;;;1.55;;
17997;SDS011;9124;48.144;17.098;2024-03-23T22:02:15;1.92;;;1.83;;
17997;SDS011;9124;48.144;17.098;2024-03-23T22:06:41;2.15;;;1.70;;
17997;SDS011;9124;48.144;17.098;2024-03-23T22:11:10;1.88;;;1.65;;
17997;SDS011;9124;48.144;17.098;2024-03-23T22:15:36;1.70;;;1.60;;
17997;SDS011;9124;48.144;17.098;2024-03-23T22:20:03;1.77;;;1.67;;
17997;SDS011;9124;48.144;17.098;2024-03-23T22:24:31;2.60;;;1.83;;
17997;SDS011;9124;48.144;17.098;2024-03-23T22:28:58;2.97;;;1.38;;
17997;SDS011;9124;48.144;17.098;2024-03-23T22:33:24;2.45;;;1.67;;
17997;SDS011;9124;48.144;17.098;2024-03-23T22:37:52;2.47;;;1.83;;
17997;SDS011;9124;48.144;17.098;2024-03-23T22:42:19;1.65;;;1.55;;
17997;SDS011;9124;48.144;17.098;2024-03-23T22:46:45;2.50;;;1.50;;
17997;SDS011;9124;48.144;17.098;2024-03-23T22:51:11;3.08;;;1.70;;
17997;SDS011;9124;48.144;17.098;2024-03-23T22:55:38;2.10;;;1.70;;
17997;SDS011;9124;48.144;17.098;2024-03-23T23:00:04;1.88;;;1.70;;
17997;SDS011;9124;48.144;17.098;2024-03-23T23:04:55;3.80;;;1.80;;
17997;SDS011;9124;48.144;17.098;2024-03-23T23:09:21;3.20;;;2.53;;
17997;SDS011;9124;48.144;17.098;2024-03-23T23:13:55;4.22;;;2.38;;
17997;SDS011;9124;48.144;17.098;2024-03-23T23:18:22;2.45;;;2.25;;
17997;SDS011;9124;48.144;17.098;2024-03-23T23:22:52;2.40;;;2.20;;
17997;SDS011;9124;48.144;17.098;2024-03-23T23:27:19;7.57;;;2.03;;
17997;SDS011;9124;48.144;17.098;2024-03-23T23:31:46;2.92;;;2.47;;
17997;SDS011;9124;48.144;17.098;2024-03-23T23:36:15;4.35;;;2.42;;
17997;SDS011;9124;48.144;17.098;2024-03-23T23:40:41;2.90;;;2.70;;
17997;SDS011;9124;48.144;17.098;2024-03-23T23:45:08;4.32;;;2.88;;
17997;SDS011;9124;48.144;17.098;2024-03-23T23:49:35;3.38;;;3.08;;
17997;SDS011;9124;48.144;17.098;2024-03-23T23:54:02;4.60;;;3.30;;
17997;SDS011;9124;48.144;17.098;2024-03-23T23:58:28;4.07;;;3.40;;
